Observations for LUTON AIRPORT, United Kingdom (EGGW)

EGGW 140820Z AUTO 27009KT 9999 OVC037 17/13 Q1016   
EGGW 140750Z AUTO 25007KT 9999 OVC036 17/13 Q1016   
EGGW 140720Z AUTO 25008KT 9999 OVC036 15/12 Q1015   
EGGW 140650Z AUTO 26008KT 9999 OVC036 15/12 Q1015   
EGGW 140620Z AUTO 23006KT 9999 OVC039 14/12 Q1015   
EGGW 140550Z AUTO 25006KT 9999 OVC038 14/12 Q1015   
EGGW 140520Z AUTO 26006KT 9999 BKN040 13/11 Q1015   
EGGW 140450Z AUTO 27009KT 9999 NCD 13/11 Q1014  
EGGW 140420Z AUTO 29008KT 9999 NCD 13/11 Q1014  
EGGW 140350Z AUTO 28009KT 9999 NCD 13/11 Q1014  
EGGW 140320Z AUTO 28006KT 9999 NCD 14/11 Q1013  
EGGW 140250Z AUTO 30008KT 9999 NCD 14/11 Q1013  
EGGW 140220Z AUTO 29010KT 9999 NCD 14/11 Q1013  
EGGW 140150Z AUTO 31011KT 9999 NCD 14/11 Q1013  
EGGW 140120Z AUTO 31009KT 9999 NCD 14/11 Q1013  
EGGW 140050Z AUTO 30011KT 9999 NCD 15/11 Q1013  
EGGW 140020Z AUTO 29012KT 9999 NCD 15/11 Q1013  
EGGW 132350Z AUTO 29010KT 9999 SCT039 16/11 Q1012   
EGGW 132320Z AUTO 30010KT 9999 NCD 16/12 Q1012  
EGGW 132250Z AUTO 30010KT 9999 NCD 16/12 Q1012  
EGGW 132220Z AUTO 30011KT 9999 NCD 16/12 Q1011  
EGGW 132150Z AUTO 31009KT 9999 NCD 17/13 Q1011  
EGGW 132120Z AUTO 31011KT 9999 NCD 17/13 Q1011  
EGGW 132050Z AUTO 31009KT 9999 NCD 18/13 Q1011  
EGGW 132020Z AUTO 31010KT 9999 SCT025 18/13 Q1010   
EGGW 131950Z AUTO 31009KT 9999 NCD 18/14 Q1010  
EGGW 131920Z AUTO 31013KT 9999 NCD 20/13 Q1010  
EGGW 131850Z AUTO 31013KT 9999 SCT047/// //////CB 20/14 Q1009   
EGGW 131820Z AUTO 32015KT 9999 SCT036 SCT047 21/14 Q1008
EGGW 131750Z AUTO 31013KT 9999 SCT039 22/13 Q1008   
EGGW 131720Z AUTO 31014KT 9999 SCT042 BKN049 23/12 Q1008
EGGW 131650Z AUTO 30011KT 270V330 9999 FEW043 23/12 Q1008   
EGGW 131620Z AUTO 29013KT 250V320 9999 SCT040 24/12 Q1007   
EGGW 131550Z AUTO 29015KT 9999 SCT041 23/13 Q1007   
EGGW 131520Z AUTO 28012KT 9999 SCT038 SCT048 23/13 Q1007
EGGW 131450Z AUTO 28012KT 250V310 9999 FEW038 23/12 Q1007   
EGGW 131420Z AUTO 27014KT 9999 FEW031 23/13 Q1007   
EGGW 131350Z AUTO 29013KT 9999 FEW033/// //////CB 22/13 Q1007   
EGGW 131320Z AUTO 30015KT 9999 FEW032/// SCT042/// //////CB 22/14 Q1007 
EGGW 131250Z AUTO 30011KT 9999 SCT029/// BKN041/// BKN047/// //////CB 22/14 Q1007   
EGGW 131220Z AUTO 30012KT 270V330 9999 BKN028 BKN034 BKN041 21/13 Q1007 
EGGW 131150Z AUTO 30010KT 9999 BKN025/// //////CB 21/14 Q1007   
EGGW 131120Z AUTO 30010KT 270V330 9999 FEW019 SCT025 21/14 Q1007
EGGW 131050Z AUTO 30011KT 9999 FEW013 BKN017 BKN022 20/14 Q1007 
EGGW 131020Z AUTO 29010KT 9999 BKN013/// //////CB 18/15 Q1006   
EGGW 130950Z AUTO 29006KT 270V330 9999 BKN011 BKN017 OVC025 18/15 Q1006 
EGGW 130920Z AUTO 27009KT 9999 -RA BKN009 BKN012 BKN017 17/15 Q1006 
EGGW 130850Z AUTO 27010KT 9999 BKN008 BKN012 OVC020 17/15 Q1006 
EGGW 130820Z AUTO 27007KT 9999 BKN007 OVC011 17/15 Q1006
EGGW 130750Z AUTO 26007KT 9999 BKN007 OVC011 17/15 Q1006